createdAt,value
2023-04-01T00:00:05.844Z,14.20
2023-04-01T00:02:36.204Z,12.93
2023-04-01T00:05:05.848Z,13.43
2023-04-01T00:07:34.234Z,13.77
2023-04-01T00:10:04.059Z,13.95
2023-04-01T00:12:32.061Z,13.55
2023-04-01T00:15:05.945Z,13.20
2023-04-01T00:17:34.003Z,14.27
2023-04-01T00:20:04.418Z,12.77
2023-04-01T00:22:32.694Z,13.18
2023-04-01T00:25:00.941Z,13.88
2023-04-01T00:27:37.624Z,14.52
2023-04-01T00:30:05.230Z,14.90
2023-04-01T00:32:33.452Z,14.00
2023-04-01T00:35:03.462Z,14.88
2023-04-01T00:37:33.222Z,17.98
2023-04-01T00:40:02.309Z,15.73
2023-04-01T00:42:36.257Z,22.52
2023-04-01T00:45:04.553Z,19.27
2023-04-01T00:47:34.791Z,17.63
2023-04-01T00:50:07.301Z,16.23
2023-04-01T00:52:34.868Z,15.95
2023-04-01T00:55:03.599Z,15.73
2023-04-01T00:57:33.591Z,16.08
2023-04-01T01:00:03.752Z,15.73
2023-04-01T01:02:33.150Z,15.73
2023-04-01T01:05:03.540Z,15.55
2023-04-01T01:07:34.064Z,17.02
2023-04-01T01:10:01.835Z,16.23
2023-04-01T01:12:32.916Z,16.92
2023-04-01T01:15:00.560Z,17.02
2023-04-01T01:17:31.266Z,16.75
2023-04-01T01:20:02.681Z,16.63
2023-04-01T01:22:31.706Z,16.10
2023-04-01T01:25:07.205Z,17.30
2023-04-01T01:27:35.368Z,17.17
2023-04-01T01:30:06.844Z,18.15
2023-04-01T01:32:38.138Z,16.73
2023-04-01T01:35:05.890Z,18.25
2023-04-01T01:37:34.291Z,18.83
2023-04-01T01:40:04.157Z,18.73
2023-04-01T01:42:33.628Z,18.02
2023-04-01T01:45:02.056Z,17.35
2023-04-01T01:47:32.140Z,17.63
2023-04-01T01:50:00.871Z,17.90
2023-04-01T01:52:30.719Z,18.15
2023-04-01T01:55:02.886Z,19.10
2023-04-01T01:57:32.495Z,18.73
2023-04-01T02:00:00.425Z,19.13
2023-04-01T02:02:31.426Z,18.90
2023-04-01T02:04:59.372Z,18.58
2023-04-01T02:07:27.132Z,21.88
2023-04-01T02:09:57.274Z,22.55
2023-04-01T02:12:25.734Z,20.17
2023-04-01T02:14:53.807Z,19.70
2023-04-01T02:17:22.841Z,19.02
2023-04-01T02:19:52.628Z,19.02
2023-04-01T02:22:21.299Z,18.63
2023-04-01T02:24:51.135Z,19.63
2023-04-01T02:27:19.276Z,18.75
2023-04-01T02:29:49.457Z,18.73
2023-04-01T02:32:22.817Z,19.40
2023-04-01T02:34:51.776Z,20.15
2023-04-01T02:37:19.568Z,19.52
2023-04-01T02:39:49.546Z,19.23
2023-04-01T02:42:17.350Z,18.70
2023-04-01T02:44:45.074Z,18.38
2023-04-01T02:47:15.725Z,19.77
2023-04-01T02:49:43.376Z,18.75
2023-04-01T02:52:10.975Z,18.70
2023-04-01T02:54:41.043Z,18.90
2023-04-01T02:57:08.800Z,18.40
2023-04-01T02:59:36.403Z,19.33
2023-04-01T03:02:06.575Z,18.67
2023-04-01T03:04:34.152Z,18.75
2023-04-01T03:07:01.877Z,18.95
2023-04-01T03:09:31.946Z,18.08
2023-04-01T03:11:59.639Z,18.67
2023-04-01T03:14:27.907Z,19.65
2023-04-01T03:16:57.973Z,17.83
2023-04-01T03:19:25.887Z,18.33
2023-04-01T03:21:53.539Z,19.35
2023-04-01T03:24:23.952Z,18.38
2023-04-01T03:26:51.858Z,18.50
2023-04-01T03:29:19.642Z,18.48
2023-04-01T03:31:49.714Z,17.20
2023-04-01T03:34:17.465Z,17.90
2023-04-01T03:36:45.067Z,16.75
2023-04-01T03:39:12.956Z,18.13
2023-04-01T03:41:40.522Z,18.27
2023-04-01T03:44:08.155Z,18.45
2023-04-01T03:46:38.082Z,18.38
2023-04-01T03:49:05.827Z,17.02
2023-04-01T03:51:33.719Z,18.23
2023-04-01T03:54:03.678Z,18.15
2023-04-01T03:56:31.293Z,17.73
2023-04-01T03:58:59.154Z,17.17
2023-04-01T04:01:31.880Z,17.38
2023-04-01T04:03:59.399Z,17.15
2023-04-01T04:06:28.473Z,16.35
2023-04-01T04:08:58.633Z,18.33
2023-04-01T04:11:26.184Z,18.23
2023-04-01T04:13:54.329Z,16.52
2023-04-01T04:16:25.095Z,16.85
2023-04-01T04:18:52.804Z,17.25
2023-04-01T04:21:21.010Z,16.60
2023-04-01T04:23:50.998Z,16.77
2023-04-01T04:26:18.642Z,16.60
2023-04-01T04:28:46.626Z,16.23
2023-04-01T04:31:16.933Z,16.63
2023-04-01T04:33:44.522Z,16.00
2023-04-01T04:36:14.510Z,17.35
2023-04-01T04:38:42.212Z,16.67
2023-04-01T04:41:09.678Z,15.65
2023-04-01T04:43:39.587Z,15.73
2023-04-01T04:46:07.274Z,15.80
2023-04-01T04:48:35.104Z,16.35
2023-04-01T04:51:05.156Z,15.93
2023-04-01T04:53:33.559Z,16.42
2023-04-01T04:56:01.155Z,15.50
2023-04-01T04:58:29.120Z,15.20
2023-04-01T05:00:56.747Z,14.25
2023-04-01T05:03:24.556Z,14.75
2023-04-01T05:05:54.587Z,14.45
2023-04-01T05:08:22.246Z,14.25
2023-04-01T05:10:49.811Z,13.90
2023-04-01T05:13:19.780Z,13.10
2023-04-01T05:15:47.830Z,13.18
2023-04-01T05:18:15.454Z,12.85
2023-04-01T05:20:45.653Z,12.95
2023-04-01T05:23:13.362Z,13.18
2023-04-01T05:25:41.985Z,12.63
2023-04-01T05:28:12.039Z,12.52
2023-04-01T05:30:39.715Z,13.13
2023-04-01T05:33:08.522Z,13.20
2023-04-01T05:35:38.603Z,13.30
2023-04-01T05:38:06.903Z,12.63
2023-04-01T05:40:36.110Z,12.95
2023-04-01T05:43:06.028Z,12.70
2023-04-01T05:45:33.745Z,12.57
2023-04-01T05:48:05.571Z,12.90
2023-04-01T05:50:35.549Z,12.57
2023-04-01T05:53:03.414Z,12.50
2023-04-01T05:55:31.710Z,12.40
2023-04-01T05:58:02.108Z,12.68
2023-04-01T06:00:36.028Z,12.07
2023-04-01T06:03:07.052Z,12.48
2023-04-01T06:05:35.573Z,12.30
2023-04-01T06:08:06.302Z,12.27
2023-04-01T06:10:37.965Z,12.73
2023-04-01T06:13:05.722Z,12.48
2023-04-01T06:15:34.725Z,13.10
2023-04-01T06:18:05.039Z,13.05
2023-04-01T06:20:36.389Z,12.52
2023-04-01T06:23:03.955Z,12.32
